KDAY/DAY METAR and TAF weather

Enter ICAO airport designator
Station Type Date Time Source
KDAY METAR 2021/01/16 01:56 UTC NOAA

KDAY 160156Z 16005KT 10SM BKN047 OVC070 01/M02 A2963 RMK AO2 SLP040 T00061022 $


Station Type Date Time Source
KDAY Decoded METAR 2021/01/16 01:56 UTC NOAA

COX DAYTON INTERNATIONAL, OH, United States (KDAY) 39-54N 084-13W 305M
Jan 15, 2021 - 08:56 PM EST / 2021.01.16 0156 UTC
Wind: from the SSE (160 degrees) at 6 MPH (5 KT):0
Visibility: 10 mile(s):0
Sky conditions: overcast
Temperature: 33.1 F (0.6 C)
Windchill: 28 F (-2 C):1
Dew Point: 28.0 F (-2.2 C)
Relative Humidity: 81%
Pressure (altimeter): 29.63 in. Hg (1003 hPa)
ob: KDAY 160156Z 16005KT 10SM BKN047 OVC070 01/M02 A2963 RMK AO2 SLP040 T00061022
cycle: 2

Station Type Date Time Source
KDAY TAF 2021/01/16 03:48 UTC NOAA

TAF
AMD KDAY 160246Z 1603/1624 19008KT P6SM VCSH SCT030 BKN050
TEMPO 1603/1604 5SM -SN
FM160500 19005KT 4SM BR VCSH BKN022
FM160700 21004KT 2SM BR VCSH OVC009
FM161400 24008KT 3SM BR VCSH OVC012
FM161700 27012G18KT P6SM VCSH BKN015
FM162300 25012KT 2SM BR OVC007

Example: see airport list